Lubbock, Texas
Current Conditions -  °F | °C
As of 7:24 AM on Friday 19 Dec 2014 (Local Time) from KLBB Reporting Station
Haze Haze  
Wind Chill: 33°   Ceiling: 400
Heat Index: 38°   Visibility: 6mi
Dew Point: 37°   Wind: 7mph
Humidity: 97%   Direction: 100°E
Pressure: 30.14"   Gusts: NA
Location:  33.59°N, 101.85°W
Report Text: KLBB 191324Z 10006KT 6SM BR OVC004 03/03 A3014 RMK AO2 T00330028
Loading
Personal Weather Stations






























Interactive Weather Map New forecast layout! Learn more

10-Day Weather Forecast

Advertisements
Track Severe Weather on mobile